sensor_id;sensor_type;location;lat;lon;timestamp;P1;durP1;ratioP1;P2;durP2;ratioP2
45887;SDS011;31595;51.418;7.572;2024-02-14T00:00:34;6.32;;;3.33;;
45887;SDS011;31595;51.418;7.572;2024-02-14T00:03:00;6.90;;;3.70;;
45887;SDS011;31595;51.418;7.572;2024-02-14T00:05:27;6.47;;;3.95;;
45887;SDS011;31595;51.418;7.572;2024-02-14T00:07:55;6.60;;;4.10;;
45887;SDS011;31595;51.418;7.572;2024-02-14T00:10:22;5.95;;;3.70;;
45887;SDS011;31595;51.418;7.572;2024-02-14T00:12:49;6.10;;;3.47;;
45887;SDS011;31595;51.418;7.572;2024-02-14T00:15:17;7.43;;;3.78;;
45887;SDS011;31595;51.418;7.572;2024-02-14T00:17:43;6.47;;;3.90;;
45887;SDS011;31595;51.418;7.572;2024-02-14T00:20:10;7.75;;;3.78;;
45887;SDS011;31595;51.418;7.572;2024-02-14T00:22:38;7.93;;;3.95;;
45887;SDS011;31595;51.418;7.572;2024-02-14T00:25:06;7.07;;;3.50;;
45887;SDS011;31595;51.418;7.572;2024-02-14T00:30:01;6.50;;;3.17;;
45887;SDS011;31595;51.418;7.572;2024-02-14T00:32:28;5.72;;;3.05;;
45887;SDS011;31595;51.418;7.572;2024-02-14T00:34:55;4.75;;;2.83;;
45887;SDS011;31595;51.418;7.572;2024-02-14T00:37:22;5.78;;;2.90;;
45887;SDS011;31595;51.418;7.572;2024-02-14T00:39:49;5.13;;;3.22;;
45887;SDS011;31595;51.418;7.572;2024-02-14T00:42:18;5.72;;;3.13;;
45887;SDS011;31595;51.418;7.572;2024-02-14T00:44:45;3.70;;;2.97;;
45887;SDS011;31595;51.418;7.572;2024-02-14T00:47:12;7.45;;;3.05;;
45887;SDS011;31595;51.418;7.572;2024-02-14T00:49:39;4.47;;;2.25;;
45887;SDS011;31595;51.418;7.572;2024-02-14T00:52:05;6.07;;;2.80;;
45887;SDS011;31595;51.418;7.572;2024-02-14T00:54:34;7.00;;;3.40;;
45887;SDS011;31595;51.418;7.572;2024-02-14T00:57:01;7.13;;;2.92;;
45887;SDS011;31595;51.418;7.572;2024-02-14T00:59:29;5.80;;;2.80;;
45887;SDS011;31595;51.418;7.572;2024-02-14T01:01:56;3.72;;;2.70;;
45887;SDS011;31595;51.418;7.572;2024-02-14T01:04:23;6.20;;;3.08;;
45887;SDS011;31595;51.418;7.572;2024-02-14T01:06:49;5.88;;;3.28;;
45887;SDS011;31595;51.418;7.572;2024-02-14T01:09:18;6.22;;;3.17;;
45887;SDS011;31595;51.418;7.572;2024-02-14T01:11:45;8.32;;;3.50;;
45887;SDS011;31595;51.418;7.572;2024-02-14T01:14:11;6.82;;;3.17;;
45887;SDS011;31595;51.418;7.572;2024-02-14T01:16:43;4.43;;;2.83;;
45887;SDS011;31595;51.418;7.572;2024-02-14T01:19:10;5.75;;;3.05;;
45887;SDS011;31595;51.418;7.572;2024-02-14T01:21:37;4.72;;;2.88;;
45887;SDS011;31595;51.418;7.572;2024-02-14T01:24:04;5.82;;;3.25;;
45887;SDS011;31595;51.418;7.572;2024-02-14T01:26:33;6.03;;;2.80;;
45887;SDS011;31595;51.418;7.572;2024-02-14T01:29:00;6.18;;;3.22;;
45887;SDS011;31595;51.418;7.572;2024-02-14T01:31:27;5.93;;;3.13;;
45887;SDS011;31595;51.418;7.572;2024-02-14T01:33:56;5.47;;;2.97;;
45887;SDS011;31595;51.418;7.572;2024-02-14T01:38:51;5.45;;;2.80;;
45887;SDS011;31595;51.418;7.572;2024-02-14T01:41:17;5.18;;;2.42;;
45887;SDS011;31595;51.418;7.572;2024-02-14T01:43:44;4.82;;;2.70;;
45887;SDS011;31595;51.418;7.572;2024-02-14T01:46:11;6.20;;;2.78;;
45887;SDS011;31595;51.418;7.572;2024-02-14T01:48:38;4.95;;;2.72;;
45887;SDS011;31595;51.418;7.572;2024-02-14T01:51:07;4.95;;;3.00;;
45887;SDS011;31595;51.418;7.572;2024-02-14T01:56:01;6.68;;;2.92;;
45887;SDS011;31595;51.418;7.572;2024-02-14T01:58:29;5.55;;;2.50;;
45887;SDS011;31595;51.418;7.572;2024-02-14T02:00:56;4.68;;;2.75;;
45887;SDS011;31595;51.418;7.572;2024-02-14T02:03:24;3.88;;;2.50;;
45887;SDS011;31595;51.418;7.572;2024-02-14T02:05:51;4.72;;;2.60;;
45887;SDS011;31595;51.418;7.572;2024-02-14T02:08:19;3.38;;;2.40;;
45887;SDS011;31595;51.418;7.572;2024-02-14T02:10:46;4.75;;;2.60;;
45887;SDS011;31595;51.418;7.572;2024-02-14T02:13:13;3.80;;;2.30;;
45887;SDS011;31595;51.418;7.572;2024-02-14T02:15:41;4.93;;;2.55;;
45887;SDS011;31595;51.418;7.572;2024-02-14T02:18:10;5.28;;;2.85;;
45887;SDS011;31595;51.418;7.572;2024-02-14T02:20:37;4.95;;;2.75;;
45887;SDS011;31595;51.418;7.572;2024-02-14T02:23:05;5.13;;;2.58;;
45887;SDS011;31595;51.418;7.572;2024-02-14T02:25:33;3.20;;;2.25;;
45887;SDS011;31595;51.418;7.572;2024-02-14T02:28:00;5.15;;;2.63;;
45887;SDS011;31595;51.418;7.572;2024-02-14T02:30:26;3.72;;;2.45;;
45887;SDS011;31595;51.418;7.572;2024-02-14T02:32:53;3.30;;;2.33;;
45887;SDS011;31595;51.418;7.572;2024-02-14T02:35:21;4.47;;;2.47;;
45887;SDS011;31595;51.418;7.572;2024-02-14T02:37:49;5.15;;;2.30;;
45887;SDS011;31595;51.418;7.572;2024-02-14T02:40:18;3.78;;;2.25;;
45887;SDS011;31595;51.418;7.572;2024-02-14T02:42:46;5.45;;;2.38;;
45887;SDS011;31595;51.418;7.572;2024-02-14T02:45:13;3.88;;;2.13;;
45887;SDS011;31595;51.418;7.572;2024-02-14T02:47:40;4.32;;;2.08;;
45887;SDS011;31595;51.418;7.572;2024-02-14T02:50:07;3.83;;;2.13;;
45887;SDS011;31595;51.418;7.572;2024-02-14T02:52:34;4.10;;;2.20;;
45887;SDS011;31595;51.418;7.572;2024-02-14T02:55:01;4.10;;;1.92;;
45887;SDS011;31595;51.418;7.572;2024-02-14T02:57:29;4.30;;;1.80;;
45887;SDS011;31595;51.418;7.572;2024-02-14T02:59:57;4.13;;;1.92;;
45887;SDS011;31595;51.418;7.572;2024-02-14T03:02:24;3.47;;;2.08;;
45887;SDS011;31595;51.418;7.572;2024-02-14T03:04:51;4.40;;;2.13;;
45887;SDS011;31595;51.418;7.572;2024-02-14T03:07:18;4.95;;;2.15;;
45887;SDS011;31595;51.418;7.572;2024-02-14T03:09:46;3.25;;;1.90;;
45887;SDS011;31595;51.418;7.572;2024-02-14T03:12:12;2.78;;;1.80;;
45887;SDS011;31595;51.418;7.572;2024-02-14T03:14:43;7.22;;;2.25;;
45887;SDS011;31595;51.418;7.572;2024-02-14T03:17:10;3.28;;;2.00;;
45887;SDS011;31595;51.418;7.572;2024-02-14T03:19:37;3.08;;;1.75;;
45887;SDS011;31595;51.418;7.572;2024-02-14T03:22:04;2.53;;;1.80;;
45887;SDS011;31595;51.418;7.572;2024-02-14T03:24:34;2.67;;;1.50;;
45887;SDS011;31595;51.418;7.572;2024-02-14T03:27:02;2.83;;;1.70;;
45887;SDS011;31595;51.418;7.572;2024-02-14T03:29:30;2.63;;;1.55;;
45887;SDS011;31595;51.418;7.572;2024-02-14T03:31:58;3.47;;;1.80;;
45887;SDS011;31595;51.418;7.572;2024-02-14T03:34:30;3.75;;;1.60;;
45887;SDS011;31595;51.418;7.572;2024-02-14T03:36:59;2.50;;;1.65;;
45887;SDS011;31595;51.418;7.572;2024-02-14T03:39:26;2.58;;;1.60;;
45887;SDS011;31595;51.418;7.572;2024-02-14T03:41:53;2.42;;;1.50;;
45887;SDS011;31595;51.418;7.572;2024-02-14T03:44:21;4.15;;;1.80;;
45887;SDS011;31595;51.418;7.572;2024-02-14T03:46:48;2.22;;;1.60;;
45887;SDS011;31595;51.418;7.572;2024-02-14T03:49:16;3.85;;;2.10;;
45887;SDS011;31595;51.418;7.572;2024-02-14T03:51:43;1.83;;;1.40;;
45887;SDS011;31595;51.418;7.572;2024-02-14T03:54:10;2.38;;;1.60;;
45887;SDS011;31595;51.418;7.572;2024-02-14T03:56:37;2.38;;;1.45;;
45887;SDS011;31595;51.418;7.572;2024-02-14T03:59:04;2.22;;;1.50;;
45887;SDS011;31595;51.418;7.572;2024-02-14T04:01:33;3.60;;;1.60;;
45887;SDS011;31595;51.418;7.572;2024-02-14T04:04:00;3.67;;;1.77;;
45887;SDS011;31595;51.418;7.572;2024-02-14T04:06:28;1.83;;;1.33;;
45887;SDS011;31595;51.418;7.572;2024-02-14T04:08:57;3.45;;;1.52;;
45887;SDS011;31595;51.418;7.572;2024-02-14T04:11:24;2.30;;;1.83;;
45887;SDS011;31595;51.418;7.572;2024-02-14T04:13:51;2.28;;;1.40;;
45887;SDS011;31595;51.418;7.572;2024-02-14T04:16:19;2.80;;;1.60;;
45887;SDS011;31595;51.418;7.572;2024-02-14T04:18:45;3.17;;;1.50;;
45887;SDS011;31595;51.418;7.572;2024-02-14T04:21:12;4.32;;;1.70;;
45887;SDS011;31595;51.418;7.572;2024-02-14T04:23:41;2.78;;;1.50;;
45887;SDS011;31595;51.418;7.572;2024-02-14T04:26:07;2.72;;;1.60;;
45887;SDS011;31595;51.418;7.572;2024-02-14T04:28:34;2.25;;;1.52;;
45887;SDS011;31595;51.418;7.572;2024-02-14T04:31:01;3.47;;;1.70;;
45887;SDS011;31595;51.418;7.572;2024-02-14T04:33:28;2.80;;;1.40;;
45887;SDS011;31595;51.418;7.572;2024-02-14T04:35:56;2.55;;;1.40;;
45887;SDS011;31595;51.418;7.572;2024-02-14T04:38:22;3.47;;;1.40;;
45887;SDS011;31595;51.418;7.572;2024-02-14T04:40:50;2.15;;;1.50;;
45887;SDS011;31595;51.418;7.572;2024-02-14T04:43:17;3.50;;;1.70;;
45887;SDS011;31595;51.418;7.572;2024-02-14T04:45:45;2.55;;;1.75;;
45887;SDS011;31595;51.418;7.572;2024-02-14T04:48:12;2.47;;;1.60;;
45887;SDS011;31595;51.418;7.572;2024-02-14T04:50:39;3.33;;;1.42;;
45887;SDS011;31595;51.418;7.572;2024-02-14T04:53:05;2.58;;;1.55;;
45887;SDS011;31595;51.418;7.572;2024-02-14T04:55:33;2.65;;;2.05;;
45887;SDS011;31595;51.418;7.572;2024-02-14T04:58:01;2.67;;;1.95;;
45887;SDS011;31595;51.418;7.572;2024-02-14T05:00:27;2.45;;;2.10;;
45887;SDS011;31595;51.418;7.572;2024-02-14T05:02:54;2.30;;;1.95;;
45887;SDS011;31595;51.418;7.572;2024-02-14T05:05:22;3.25;;;2.15;;
45887;SDS011;31595;51.418;7.572;2024-02-14T05:07:49;2.83;;;2.30;;
45887;SDS011;31595;51.418;7.572;2024-02-14T05:10:16;3.42;;;2.25;;
45887;SDS011;31595;51.418;7.572;2024-02-14T05:12:43;3.10;;;2.22;;
45887;SDS011;31595;51.418;7.572;2024-02-14T05:15:12;3.40;;;2.70;;
45887;SDS011;31595;51.418;7.572;2024-02-14T05:17:41;2.97;;;2.60;;
45887;SDS011;31595;51.418;7.572;2024-02-14T05:20:08;3.97;;;2.08;;
45887;SDS011;31595;51.418;7.572;2024-02-14T05:22:35;4.38;;;2.85;;
45887;SDS011;31595;51.418;7.572;2024-02-14T05:25:03;4.05;;;2.50;;
45887;SDS011;31595;51.418;7.572;2024-02-14T05:27:30;5.93;;;3.10;;
45887;SDS011;31595;51.418;7.572;2024-02-14T05:29:57;3.80;;;2.78;;
45887;SDS011;31595;51.418;7.572;2024-02-14T05:32:25;2.90;;;2.53;;
45887;SDS011;31595;51.418;7.572;2024-02-14T05:34:52;3.72;;;2.47;;
45887;SDS011;31595;51.418;7.572;2024-02-14T05:37:19;4.03;;;2.67;;
45887;SDS011;31595;51.418;7.572;2024-02-14T05:39:46;3.10;;;2.45;;
45887;SDS011;31595;51.418;7.572;2024-02-14T05:42:13;2.95;;;2.65;;
45887;SDS011;31595;51.418;7.572;2024-02-14T05:44:41;5.05;;;2.97;;
45887;SDS011;31595;51.418;7.572;2024-02-14T05:47:08;3.00;;;2.40;;
45887;SDS011;31595;51.418;7.572;2024-02-14T05:49:38;3.92;;;2.50;;
45887;SDS011;31595;51.418;7.572;2024-02-14T05:52:05;3.45;;;2.95;;
45887;SDS011;31595;51.418;7.572;2024-02-14T05:54:32;2.95;;;2.65;;
45887;SDS011;31595;51.418;7.572;2024-02-14T05:56:58;3.80;;;2.97;;
45887;SDS011;31595;51.418;7.572;2024-02-14T05:59:26;3.78;;;3.08;;
45887;SDS011;31595;51.418;7.572;2024-02-14T06:01:53;4.45;;;3.30;;
45887;SDS011;31595;51.418;7.572;2024-02-14T06:04:20;3.95;;;3.47;;
45887;SDS011;31595;51.418;7.572;2024-02-14T06:06:48;6.05;;;3.63;;
45887;SDS011;31595;51.418;7.572;2024-02-14T06:09:15;4.90;;;4.10;;
45887;SDS011;31595;51.418;7.572;2024-02-14T06:11:42;5.93;;;4.30;;
45887;SDS011;31595;51.418;7.572;2024-02-14T06:14:09;4.32;;;3.55;;
45887;SDS011;31595;51.418;7.572;2024-02-14T06:16:36;4.57;;;3.65;;
45887;SDS011;31595;51.418;7.572;2024-02-14T06:19:03;3.83;;;3.17;;
45887;SDS011;31595;51.418;7.572;2024-02-14T06:21:31;6.32;;;3.22;;
45887;SDS011;31595;51.418;7.572;2024-02-14T06:24:00;4.90;;;3.08;;
45887;SDS011;31595;51.418;7.572;2024-02-14T06:26:27;4.28;;;2.53;;
45887;SDS011;31595;51.418;7.572;2024-02-14T06:28:53;4.43;;;2.67;;
45887;SDS011;31595;51.418;7.572;2024-02-14T06:31:21;2.95;;;2.15;;
45887;SDS011;31595;51.418;7.572;2024-02-14T06:33:49;2.78;;;2.17;;
45887;SDS011;31595;51.418;7.572;2024-02-14T06:36:16;3.10;;;2.25;;
45887;SDS011;31595;51.418;7.572;2024-02-14T06:38:42;2.83;;;2.00;;
45887;SDS011;31595;51.418;7.572;2024-02-14T06:41:13;2.88;;;2.38;;
45887;SDS011;31595;51.418;7.572;2024-02-14T06:43:39;2.40;;;1.98;;
45887;SDS011;31595;51.418;7.572;2024-02-14T06:46:06;2.90;;;2.10;;
45887;SDS011;31595;51.418;7.572;2024-02-14T06:48:33;2.80;;;2.17;;
45887;SDS011;31595;51.418;7.572;2024-02-14T06:51:00;2.80;;;2.40;;
45887;SDS011;31595;51.418;7.572;2024-02-14T06:53:27;2.55;;;2.00;;
45887;SDS011;31595;51.418;7.572;2024-02-14T06:55:54;4.50;;;2.28;;
45887;SDS011;31595;51.418;7.572;2024-02-14T06:58:22;3.10;;;2.25;;
45887;SDS011;31595;51.418;7.572;2024-02-14T07:00:49;4.15;;;2.40;;
45887;SDS011;31595;51.418;7.572;2024-02-14T07:03:16;4.05;;;3.15;;
45887;SDS011;31595;51.418;7.572;2024-02-14T07:05:43;4.07;;;3.22;;
45887;SDS011;31595;51.418;7.572;2024-02-14T07:08:09;4.18;;;3.78;;
45887;SDS011;31595;51.418;7.572;2024-02-14T07:10:36;4.07;;;3.65;;
45887;SDS011;31595;51.418;7.572;2024-02-14T07:13:03;4.15;;;3.60;;
45887;SDS011;31595;51.418;7.572;2024-02-14T07:15:31;3.95;;;3.40;;
45887;SDS011;31595;51.418;7.572;2024-02-14T07:17:58;3.78;;;3.40;;
45887;SDS011;31595;51.418;7.572;2024-02-14T07:20:25;4.60;;;3.80;;
45887;SDS011;31595;51.418;7.572;2024-02-14T07:22:52;4.45;;;4.05;;
45887;SDS011;31595;51.418;7.572;2024-02-14T07:25:21;4.40;;;4.00;;
45887;SDS011;31595;51.418;7.572;2024-02-14T07:27:48;4.75;;;3.35;;
45887;SDS011;31595;51.418;7.572;2024-02-14T07:30:15;7.95;;;3.40;;
45887;SDS011;31595;51.418;7.572;2024-02-14T07:32:44;4.75;;;4.05;;
45887;SDS011;31595;51.418;7.572;2024-02-14T07:35:11;3.53;;;3.22;;
45887;SDS011;31595;51.418;7.572;2024-02-14T07:37:38;3.90;;;3.50;;
45887;SDS011;31595;51.418;7.572;2024-02-14T07:40:06;5.13;;;3.97;;
45887;SDS011;31595;51.418;7.572;2024-02-14T07:42:32;4.80;;;3.85;;
45887;SDS011;31595;51.418;7.572;2024-02-14T07:44:59;4.15;;;3.75;;
45887;SDS011;31595;51.418;7.572;2024-02-14T07:47:28;4.85;;;3.33;;
45887;SDS011;31595;51.418;7.572;2024-02-14T07:49:57;4.55;;;3.60;;
45887;SDS011;31595;51.418;7.572;2024-02-14T07:52:24;4.60;;;4.07;;
45887;SDS011;31595;51.418;7.572;2024-02-14T07:54:51;3.63;;;3.33;;
45887;SDS011;31595;51.418;7.572;2024-02-14T07:57:18;3.60;;;3.30;;
45887;SDS011;31595;51.418;7.572;2024-02-14T07:59:44;4.40;;;3.20;;
45887;SDS011;31595;51.418;7.572;2024-02-14T08:02:11;4.18;;;3.10;;
45887;SDS011;31595;51.418;7.572;2024-02-14T08:04:38;3.63;;;2.95;;
45887;SDS011;31595;51.418;7.572;2024-02-14T08:07:06;3.35;;;2.60;;
45887;SDS011;31595;51.418;7.572;2024-02-14T08:09:33;5.38;;;3.17;;
45887;SDS011;31595;51.418;7.572;2024-02-14T08:12:00;4.60;;;3.40;;
45887;SDS011;31595;51.418;7.572;2024-02-14T08:14:27;3.60;;;2.70;;
45887;SDS011;31595;51.418;7.572;2024-02-14T08:16:53;4.43;;;3.33;;
45887;SDS011;31595;51.418;7.572;2024-02-14T08:19:20;3.72;;;3.00;;
45887;SDS011;31595;51.418;7.572;2024-02-14T08:21:47;4.07;;;2.90;;
45887;SDS011;31595;51.418;7.572;2024-02-14T08:24:15;3.08;;;2.72;;
45887;SDS011;31595;51.418;7.572;2024-02-14T08:26:42;3.28;;;2.85;;
45887;SDS011;31595;51.418;7.572;2024-02-14T08:29:09;4.10;;;3.13;;
45887;SDS011;31595;51.418;7.572;2024-02-14T08:31:37;4.00;;;2.88;;
45887;SDS011;31595;51.418;7.572;2024-02-14T08:34:03;3.75;;;2.30;;
45887;SDS011;31595;51.418;7.572;2024-02-14T08:36:30;2.65;;;2.45;;
45887;SDS011;31595;51.418;7.572;2024-02-14T08:38:57;2.70;;;2.38;;
45887;SDS011;31595;51.418;7.572;2024-02-14T08:41:25;2.10;;;1.80;;
45887;SDS011;31595;51.418;7.572;2024-02-14T08:43:52;1.80;;;1.60;;
45887;SDS011;31595;51.418;7.572;2024-02-14T08:46:19;2.22;;;1.80;;
45887;SDS011;31595;51.418;7.572;2024-02-14T08:48:45;2.42;;;1.90;;
45887;SDS011;31595;51.418;7.572;2024-02-14T08:51:13;2.35;;;1.80;;
45887;SDS011;31595;51.418;7.572;2024-02-14T08:53:40;2.20;;;1.80;;
45887;SDS011;31595;51.418;7.572;2024-02-14T08:56:09;3.15;;;1.85;;
45887;SDS011;31595;51.418;7.572;2024-02-14T08:58:37;2.47;;;1.60;;
45887;SDS011;31595;51.418;7.572;2024-02-14T09:01:04;1.90;;;1.65;;
45887;SDS011;31595;51.418;7.572;2024-02-14T09:03:32;3.15;;;1.70;;
45887;SDS011;31595;51.418;7.572;2024-02-14T09:05:59;2.10;;;1.70;;
45887;SDS011;31595;51.418;7.572;2024-02-14T09:08:28;2.55;;;1.70;;
45887;SDS011;31595;51.418;7.572;2024-02-14T09:10:56;2.75;;;1.80;;
45887;SDS011;31595;51.418;7.572;2024-02-14T09:13:24;1.90;;;1.55;;
45887;SDS011;31595;51.418;7.572;2024-02-14T09:15:52;2.25;;;1.80;;
45887;SDS011;31595;51.418;7.572;2024-02-14T09:18:19;3.22;;;2.00;;
45887;SDS011;31595;51.418;7.572;2024-02-14T09:20:46;3.30;;;2.03;;
45887;SDS011;31595;51.418;7.572;2024-02-14T09:23:13;4.25;;;2.40;;
45887;SDS011;31595;51.418;7.572;2024-02-14T09:25:42;3.08;;;2.20;;
45887;SDS011;31595;51.418;7.572;2024-02-14T09:28:09;2.63;;;2.10;;
45887;SDS011;31595;51.418;7.572;2024-02-14T09:30:36;2.70;;;2.20;;
45887;SDS011;31595;51.418;7.572;2024-02-14T09:33:04;2.22;;;1.85;;
45887;SDS011;31595;51.418;7.572;2024-02-14T09:35:31;2.92;;;2.15;;
45887;SDS011;31595;51.418;7.572;2024-02-14T09:37:58;3.83;;;2.30;;
45887;SDS011;31595;51.418;7.572;2024-02-14T09:40:25;4.60;;;1.90;;
45887;SDS011;31595;51.418;7.572;2024-02-14T09:42:53;4.78;;;2.05;;
45887;SDS011;31595;51.418;7.572;2024-02-14T09:45:20;2.97;;;1.80;;
45887;SDS011;31595;51.418;7.572;2024-02-14T09:47:47;2.20;;;1.60;;
45887;SDS011;31595;51.418;7.572;2024-02-14T09:50:16;2.75;;;1.70;;
45887;SDS011;31595;51.418;7.572;2024-02-14T09:52:43;2.60;;;1.17;;
45887;SDS011;31595;51.418;7.572;2024-02-14T09:55:11;2.33;;;1.58;;
45887;SDS011;31595;51.418;7.572;2024-02-14T09:57:38;2.60;;;1.40;;
45887;SDS011;31595;51.418;7.572;2024-02-14T10:00:07;2.35;;;1.40;;
45887;SDS011;31595;51.418;7.572;2024-02-14T10:02:35;1.50;;;1.10;;
45887;SDS011;31595;51.418;7.572;2024-02-14T10:05:03;3.50;;;1.30;;
45887;SDS011;31595;51.418;7.572;2024-02-14T10:07:31;2.00;;;1.30;;
45887;SDS011;31595;51.418;7.572;2024-02-14T10:10:05;2.90;;;1.42;;
45887;SDS011;31595;51.418;7.572;2024-02-14T10:12:32;2.85;;;1.30;;
45887;SDS011;31595;51.418;7.572;2024-02-14T10:14:59;3.15;;;1.73;;
45887;SDS011;31595;51.418;7.572;2024-02-14T10:17:26;3.47;;;1.30;;
45887;SDS011;31595;51.418;7.572;2024-02-14T10:19:56;2.13;;;1.23;;
45887;SDS011;31595;51.418;7.572;2024-02-14T10:22:23;2.08;;;1.30;;
45887;SDS011;31595;51.418;7.572;2024-02-14T10:24:52;2.00;;;1.10;;
45887;SDS011;31595;51.418;7.572;2024-02-14T10:27:20;1.73;;;1.10;;
45887;SDS011;31595;51.418;7.572;2024-02-14T10:29:47;2.85;;;1.23;;
45887;SDS011;31595;51.418;7.572;2024-02-14T10:32:14;2.05;;;1.15;;
45887;SDS011;31595;51.418;7.572;2024-02-14T10:34:41;2.45;;;1.20;;
45887;SDS011;31595;51.418;7.572;2024-02-14T10:37:11;1.60;;;1.00;;
45887;SDS011;31595;51.418;7.572;2024-02-14T10:39:40;4.28;;;1.17;;
45887;SDS011;31595;51.418;7.572;2024-02-14T10:42:09;2.58;;;1.33;;
45887;SDS011;31595;51.418;7.572;2024-02-14T10:44:36;4.57;;;1.20;;
45887;SDS011;31595;51.418;7.572;2024-02-14T10:47:03;3.83;;;1.40;;
45887;SDS011;31595;51.418;7.572;2024-02-14T10:49:32;3.03;;;1.55;;
45887;SDS011;31595;51.418;7.572;2024-02-14T10:52:00;2.75;;;1.45;;
45887;SDS011;31595;51.418;7.572;2024-02-14T10:54:30;2.13;;;1.42;;
45887;SDS011;31595;51.418;7.572;2024-02-14T10:56:58;2.70;;;1.38;;
45887;SDS011;31595;51.418;7.572;2024-02-14T10:59:26;3.08;;;1.30;;
45887;SDS011;31595;51.418;7.572;2024-02-14T11:01:53;3.05;;;1.42;;
45887;SDS011;31595;51.418;7.572;2024-02-14T11:04:22;3.15;;;1.50;;
45887;SDS011;31595;51.418;7.572;2024-02-14T11:06:51;2.97;;;1.40;;
45887;SDS011;31595;51.418;7.572;2024-02-14T11:09:19;5.45;;;1.60;;
45887;SDS011;31595;51.418;7.572;2024-02-14T11:11:46;5.25;;;1.50;;
45887;SDS011;31595;51.418;7.572;2024-02-14T11:14:14;3.40;;;1.30;;
45887;SDS011;31595;51.418;7.572;2024-02-14T11:16:44;5.55;;;1.42;;
45887;SDS011;31595;51.418;7.572;2024-02-14T11:19:12;4.45;;;2.00;;
45887;SDS011;31595;51.418;7.572;2024-02-14T11:21:39;4.10;;;1.60;;
45887;SDS011;31595;51.418;7.572;2024-02-14T11:24:09;3.23;;;1.57;;
45887;SDS011;31595;51.418;7.572;2024-02-14T11:26:39;2.30;;;1.60;;
45887;SDS011;31595;51.418;7.572;2024-02-14T11:29:06;3.45;;;1.33;;
45887;SDS011;31595;51.418;7.572;2024-02-14T11:31:35;2.85;;;1.48;;
45887;SDS011;31595;51.418;7.572;2024-02-14T11:34:05;2.80;;;1.42;;
45887;SDS011;31595;51.418;7.572;2024-02-14T11:36:34;3.30;;;1.20;;
45887;SDS011;31595;51.418;7.572;2024-02-14T11:39:02;2.08;;;1.20;;
45887;SDS011;31595;51.418;7.572;2024-02-14T11:41:29;2.83;;;1.15;;
45887;SDS011;31595;51.418;7.572;2024-02-14T11:43:56;1.85;;;0.93;;
45887;SDS011;31595;51.418;7.572;2024-02-14T11:46:29;1.98;;;1.02;;
45887;SDS011;31595;51.418;7.572;2024-02-14T11:48:55;2.90;;;0.90;;
45887;SDS011;31595;51.418;7.572;2024-02-14T11:51:24;2.58;;;0.98;;
45887;SDS011;31595;51.418;7.572;2024-02-14T11:53:51;1.95;;;1.20;;
45887;SDS011;31595;51.418;7.572;2024-02-14T11:56:18;3.50;;;1.20;;
45887;SDS011;31595;51.418;7.572;2024-02-14T11:58:45;3.15;;;1.38;;
45887;SDS011;31595;51.418;7.572;2024-02-14T12:01:13;2.15;;;1.30;;
45887;SDS011;31595;51.418;7.572;2024-02-14T12:03:40;3.40;;;1.70;;
45887;SDS011;31595;51.418;7.572;2024-02-14T12:06:07;3.67;;;1.55;;
45887;SDS011;31595;51.418;7.572;2024-02-14T12:08:35;2.60;;;1.20;;
45887;SDS011;31595;51.418;7.572;2024-02-14T12:11:02;2.47;;;1.10;;
45887;SDS011;31595;51.418;7.572;2024-02-14T12:13:30;2.22;;;0.88;;
45887;SDS011;31595;51.418;7.572;2024-02-14T12:15:57;2.13;;;1.10;;
45887;SDS011;31595;51.418;7.572;2024-02-14T12:18:24;2.40;;;1.42;;
45887;SDS011;31595;51.418;7.572;2024-02-14T12:20:51;2.95;;;1.50;;
45887;SDS011;31595;51.418;7.572;2024-02-14T12:23:18;2.50;;;1.30;;
45887;SDS011;31595;51.418;7.572;2024-02-14T12:25:47;1.65;;;1.15;;
45887;SDS011;31595;51.418;7.572;2024-02-14T12:28:15;3.72;;;1.40;;
45887;SDS011;31595;51.418;7.572;2024-02-14T12:30:43;3.15;;;1.40;;
45887;SDS011;31595;51.418;7.572;2024-02-14T12:33:10;2.05;;;1.15;;
45887;SDS011;31595;51.418;7.572;2024-02-14T12:35:40;1.92;;;1.30;;
45887;SDS011;31595;51.418;7.572;2024-02-14T12:38:07;3.03;;;1.35;;
45887;SDS011;31595;51.418;7.572;2024-02-14T12:40:35;2.10;;;1.30;;
45887;SDS011;31595;51.418;7.572;2024-02-14T12:43:03;2.30;;;1.30;;
45887;SDS011;31595;51.418;7.572;2024-02-14T12:45:31;2.25;;;1.55;;
45887;SDS011;31595;51.418;7.572;2024-02-14T12:47:59;2.33;;;1.52;;
45887;SDS011;31595;51.418;7.572;2024-02-14T12:50:26;2.33;;;1.65;;
45887;SDS011;31595;51.418;7.572;2024-02-14T12:52:53;3.25;;;1.60;;
45887;SDS011;31595;51.418;7.572;2024-02-14T12:55:20;3.25;;;1.60;;
45887;SDS011;31595;51.418;7.572;2024-02-14T12:57:49;3.37;;;1.90;;
45887;SDS011;31595;51.418;7.572;2024-02-14T13:00:17;3.00;;;1.95;;
45887;SDS011;31595;51.418;7.572;2024-02-14T13:02:44;3.70;;;1.65;;
45887;SDS011;31595;51.418;7.572;2024-02-14T13:05:11;4.03;;;2.00;;
45887;SDS011;31595;51.418;7.572;2024-02-14T13:07:38;3.00;;;1.67;;
45887;SDS011;31595;51.418;7.572;2024-02-14T13:10:05;3.03;;;1.80;;
45887;SDS011;31595;51.418;7.572;2024-02-14T13:12:33;2.85;;;1.73;;
45887;SDS011;31595;51.418;7.572;2024-02-14T13:15:00;5.25;;;1.83;;
45887;SDS011;31595;51.418;7.572;2024-02-14T13:17:29;2.92;;;1.60;;
45887;SDS011;31595;51.418;7.572;2024-02-14T13:19:55;4.88;;;1.58;;
45887;SDS011;31595;51.418;7.572;2024-02-14T13:22:22;1.85;;;1.23;;
45887;SDS011;31595;51.418;7.572;2024-02-14T13:24:49;3.33;;;1.50;;
45887;SDS011;31595;51.418;7.572;2024-02-14T13:27:16;2.63;;;1.42;;
45887;SDS011;31595;51.418;7.572;2024-02-14T13:29:43;3.10;;;1.33;;
45887;SDS011;31595;51.418;7.572;2024-02-14T13:32:10;3.15;;;1.40;;
45887;SDS011;31595;51.418;7.572;2024-02-14T13:34:38;4.60;;;1.50;;
45887;SDS011;31595;51.418;7.572;2024-02-14T13:37:05;3.47;;;1.98;;
45887;SDS011;31595;51.418;7.572;2024-02-14T13:39:32;3.33;;;1.40;;
45887;SDS011;31595;51.418;7.572;2024-02-14T13:41:59;2.63;;;1.13;;
45887;SDS011;31595;51.418;7.572;2024-02-14T13:44:26;3.20;;;1.40;;
45887;SDS011;31595;51.418;7.572;2024-02-14T13:46:53;1.85;;;1.10;;
45887;SDS011;31595;51.418;7.572;2024-02-14T13:49:20;3.05;;;1.20;;
45887;SDS011;31595;51.418;7.572;2024-02-14T13:51:49;3.03;;;1.00;;
45887;SDS011;31595;51.418;7.572;2024-02-14T13:54:17;2.20;;;1.05;;
45887;SDS011;31595;51.418;7.572;2024-02-14T13:56:43;1.38;;;0.70;;
45887;SDS011;31595;51.418;7.572;2024-02-14T13:59:10;2.10;;;0.90;;
45887;SDS011;31595;51.418;7.572;2024-02-14T14:01:37;2.53;;;0.80;;
45887;SDS011;31595;51.418;7.572;2024-02-14T14:04:04;2.28;;;0.90;;
45887;SDS011;31595;51.418;7.572;2024-02-14T14:06:31;2.05;;;0.93;;
45887;SDS011;31595;51.418;7.572;2024-02-14T14:08:59;1.45;;;0.60;;
45887;SDS011;31595;51.418;7.572;2024-02-14T14:11:26;1.70;;;0.95;;
45887;SDS011;31595;51.418;7.572;2024-02-14T14:13:53;1.98;;;1.00;;
45887;SDS011;31595;51.418;7.572;2024-02-14T14:16:19;2.30;;;1.00;;
45887;SDS011;31595;51.418;7.572;2024-02-14T14:18:48;1.73;;;0.93;;
45887;SDS011;31595;51.418;7.572;2024-02-14T14:21:15;2.83;;;1.00;;
45887;SDS011;31595;51.418;7.572;2024-02-14T14:23:42;2.28;;;1.00;;
45887;SDS011;31595;51.418;7.572;2024-02-14T14:26:10;1.67;;;0.93;;
45887;SDS011;31595;51.418;7.572;2024-02-14T14:28:38;2.08;;;1.08;;
45887;SDS011;31595;51.418;7.572;2024-02-14T14:31:05;1.45;;;0.88;;
45887;SDS011;31595;51.418;7.572;2024-02-14T14:33:34;3.67;;;1.10;;
45887;SDS011;31595;51.418;7.572;2024-02-14T14:36:01;2.33;;;1.10;;
45887;SDS011;31595;51.418;7.572;2024-02-14T14:38:31;1.65;;;1.00;;
45887;SDS011;31595;51.418;7.572;2024-02-14T14:40:58;2.65;;;1.00;;
45887;SDS011;31595;51.418;7.572;2024-02-14T14:43:26;2.28;;;1.38;;
45887;SDS011;31595;51.418;7.572;2024-02-14T14:45:53;2.75;;;1.27;;
45887;SDS011;31595;51.418;7.572;2024-02-14T14:48:22;2.22;;;1.27;;
45887;SDS011;31595;51.418;7.572;2024-02-14T14:50:49;2.00;;;1.20;;
45887;SDS011;31595;51.418;7.572;2024-02-14T14:53:15;1.50;;;1.00;;
45887;SDS011;31595;51.418;7.572;2024-02-14T14:55:52;1.90;;;1.02;;